sensor_id;sensor_type;location;lat;lon;timestamp;pressure;altitude;pressure_sealevel;temperature;humidity
62725;BME280;49026;52.600;4.694;2023-02-19T00:01:33;101731.44;;;8.08;94.97
62725;BME280;49026;52.600;4.694;2023-02-19T00:04:27;101741.91;;;8.08;94.81
62725;BME280;49026;52.600;4.694;2023-02-19T00:06:55;101722.72;;;8.09;94.86
62725;BME280;49026;52.600;4.694;2023-02-19T00:09:20;101731.41;;;8.11;95.11
62725;BME280;49026;52.600;4.694;2023-02-19T00:11:46;101730.53;;;8.12;95.12
62725;BME280;49026;52.600;4.694;2023-02-19T00:14:16;101730.50;;;8.14;95.07
62725;BME280;49026;52.600;4.694;2023-02-19T00:16:42;101726.09;;;8.16;95.11
62725;BME280;49026;52.600;4.694;2023-02-19T00:19:11;101736.56;;;8.18;94.86
62725;BME280;49026;52.600;4.694;2023-02-19T00:21:37;101733.94;;;8.16;95.40
62725;BME280;49026;52.600;4.694;2023-02-19T00:24:05;101737.44;;;8.16;95.46
62725;BME280;49026;52.600;4.694;2023-02-19T00:26:33;101740.06;;;8.15;95.00
62725;BME280;49026;52.600;4.694;2023-02-19T00:29:00;101743.56;;;8.15;95.62
62725;BME280;49026;52.600;4.694;2023-02-19T00:31:30;101740.97;;;8.14;94.73
62725;BME280;49026;52.600;4.694;2023-02-19T00:33:58;101737.47;;;8.13;95.52
62725;BME280;49026;52.600;4.694;2023-02-19T00:36:26;101739.22;;;8.13;95.38
62725;BME280;49026;52.600;4.694;2023-02-19T00:38:54;101742.72;;;8.13;95.71
62725;BME280;49026;52.600;4.694;2023-02-19T00:41:21;101742.72;;;8.13;95.87
62725;BME280;49026;52.600;4.694;2023-02-19T00:44:00;101740.97;;;8.14;95.67
62725;BME280;49026;52.600;4.694;2023-02-19T00:46:44;101758.41;;;8.15;95.55
62725;BME280;49026;52.600;4.694;2023-02-19T00:49:20;101747.91;;;8.15;95.77
62725;BME280;49026;52.600;4.694;2023-02-19T00:51:47;101740.97;;;8.14;95.22
62725;BME280;49026;52.600;4.694;2023-02-19T00:54:13;101736.63;;;8.13;95.45
62725;BME280;49026;52.600;4.694;2023-02-19T00:56:39;101745.31;;;8.13;95.32
62725;BME280;49026;52.600;4.694;2023-02-19T00:59:04;101743.63;;;8.12;95.29
62725;BME280;49026;52.600;4.694;2023-02-19T01:01:30;101741.88;;;8.10;95.48
62725;BME280;49026;52.600;4.694;2023-02-19T01:03:57;101749.78;;;8.07;95.19
62725;BME280;49026;52.600;4.694;2023-02-19T01:06:23;101748.97;;;8.03;95.69
62725;BME280;49026;52.600;4.694;2023-02-19T01:08:49;101759.44;;;8.03;95.19
62725;BME280;49026;52.600;4.694;2023-02-19T01:11:14;101751.63;;;8.00;95.41
62725;BME280;49026;52.600;4.694;2023-02-19T01:13:44;101745.53;;;8.01;95.83
62725;BME280;49026;52.600;4.694;2023-02-19T01:16:17;101762.94;;;8.04;95.29
62725;BME280;49026;52.600;4.694;2023-02-19T01:18:43;101762.09;;;8.02;95.74
62725;BME280;49026;52.600;4.694;2023-02-19T01:21:18;101760.41;;;7.99;95.74
62725;BME280;49026;52.600;4.694;2023-02-19T01:23:44;101768.28;;;7.96;95.80
62725;BME280;49026;52.600;4.694;2023-02-19T01:26:17;101770.09;;;7.92;96.07
62725;BME280;49026;52.600;4.694;2023-02-19T01:28:43;101770.97;;;7.90;96.00
62725;BME280;49026;52.600;4.694;2023-02-19T01:31:11;101769.25;;;7.89;95.94
62725;BME280;49026;52.600;4.694;2023-02-19T01:33:37;101766.69;;;7.86;95.62
62725;BME280;49026;52.600;4.694;2023-02-19T01:36:03;101769.31;;;7.86;95.54
62725;BME280;49026;52.600;4.694;2023-02-19T01:38:31;101755.31;;;7.87;95.60
62725;BME280;49026;52.600;4.694;2023-02-19T01:41:01;101769.34;;;7.83;95.70
62725;BME280;49026;52.600;4.694;2023-02-19T01:43:27;101764.13;;;7.81;95.96
62725;BME280;49026;52.600;4.694;2023-02-19T01:45:53;101770.28;;;7.78;95.38
62725;BME280;49026;52.600;4.694;2023-02-19T01:48:26;101770.28;;;7.78;96.40
62725;BME280;49026;52.600;4.694;2023-02-19T01:50:58;101770.28;;;7.78;96.14
62725;BME280;49026;52.600;4.694;2023-02-19T01:53:29;101776.38;;;7.79;95.92
62725;BME280;49026;52.600;4.694;2023-02-19T01:55:59;101782.47;;;7.79;95.92
62725;BME280;49026;52.600;4.694;2023-02-19T01:58:30;101783.38;;;7.78;96.25
62725;BME280;49026;52.600;4.694;2023-02-19T02:00:59;101774.66;;;7.76;96.01
62725;BME280;49026;52.600;4.694;2023-02-19T02:03:27;101783.41;;;7.75;96.10
62725;BME280;49026;52.600;4.694;2023-02-19T02:06:14;101772.06;;;7.73;96.41
62725;BME280;49026;52.600;4.694;2023-02-19T02:08:41;101779.03;;;7.74;96.35
62725;BME280;49026;52.600;4.694;2023-02-19T02:11:25;101786.91;;;7.73;96.70
62725;BME280;49026;52.600;4.694;2023-02-19T02:13:54;101776.47;;;7.71;96.45
62725;BME280;49026;52.600;4.694;2023-02-19T02:16:24;101775.59;;;7.72;96.47
62725;BME280;49026;52.600;4.694;2023-02-19T02:29:54;101787.88;;;7.66;96.61
62725;BME280;49026;52.600;4.694;2023-02-19T02:35:33;101794.00;;;7.63;96.67
62725;BME280;49026;52.600;4.694;2023-02-19T02:38:04;101778.31;;;7.63;96.94
62725;BME280;49026;52.600;4.694;2023-02-19T02:40:31;101777.47;;;7.61;96.58
62725;BME280;49026;52.600;4.694;2023-02-19T02:42:58;101781.84;;;7.62;96.67
62725;BME280;49026;52.600;4.694;2023-02-19T02:45:33;101793.16;;;7.61;97.18
62725;BME280;49026;52.600;4.694;2023-02-19T02:48:17;101793.16;;;7.61;96.75
62725;BME280;49026;52.600;4.694;2023-02-19T02:53:19;101801.03;;;7.61;96.78
62725;BME280;49026;52.600;4.694;2023-02-19T02:56:06;101803.63;;;7.63;96.44
62725;BME280;49026;52.600;4.694;2023-02-19T02:58:33;101809.78;;;7.58;97.38
62725;BME280;49026;52.600;4.694;2023-02-19T03:01:05;101808.03;;;7.59;96.94
62725;BME280;49026;52.600;4.694;2023-02-19T03:03:55;101805.44;;;7.56;96.98
62725;BME280;49026;52.600;4.694;2023-02-19T03:06:24;101813.28;;;7.56;96.76
62725;BME280;49026;52.600;4.694;2023-02-19T03:08:54;101821.13;;;7.56;97.54
62725;BME280;49026;52.600;4.694;2023-02-19T03:11:26;101824.59;;;7.56;97.21
62725;BME280;49026;52.600;4.694;2023-02-19T03:14:30;101832.47;;;7.55;96.95
62725;BME280;49026;52.600;4.694;2023-02-19T03:17:25;101821.13;;;7.56;96.53
62725;BME280;49026;52.600;4.694;2023-02-19T03:20:13;101822.91;;;7.54;96.84
62725;BME280;49026;52.600;4.694;2023-02-19T03:22:43;101825.53;;;7.52;97.20
62725;BME280;49026;52.600;4.694;2023-02-19T03:25:13;101822.94;;;7.51;97.19
62725;BME280;49026;52.600;4.694;2023-02-19T03:28:00;101826.44;;;7.50;96.84
62725;BME280;49026;52.600;4.694;2023-02-19T03:30:30;101825.59;;;7.48;96.76
62725;BME280;49026;52.600;4.694;2023-02-19T03:33:07;101828.19;;;7.48;96.96
62725;BME280;49026;52.600;4.694;2023-02-19T03:35:43;101833.44;;;7.46;97.19
62725;BME280;49026;52.600;4.694;2023-02-19T03:43:41;101839.59;;;7.44;96.97
62725;BME280;49026;52.600;4.694;2023-02-19T03:46:11;101850.91;;;7.46;97.13
62725;BME280;49026;52.600;4.694;2023-02-19T03:48:49;101843.06;;;7.46;97.25
62725;BME280;49026;52.600;4.694;2023-02-19T03:51:26;101853.50;;;7.46;97.41
62725;BME280;49026;52.600;4.694;2023-02-19T03:56:35;101862.22;;;7.46;97.38
62725;BME280;49026;52.600;4.694;2023-02-19T03:59:08;101868.31;;;7.47;97.01
62725;BME280;49026;52.600;4.694;2023-02-19T04:01:39;101865.72;;;7.45;97.28
62725;BME280;49026;52.600;4.694;2023-02-19T04:04:31;101874.44;;;7.46;97.63
62725;BME280;49026;52.600;4.694;2023-02-19T04:06:56;101878.75;;;7.47;97.46
62725;BME280;49026;52.600;4.694;2023-02-19T04:09:27;101896.22;;;7.46;97.35
62725;BME280;49026;52.600;4.694;2023-02-19T04:11:54;101883.16;;;7.45;97.31
62725;BME280;49026;52.600;4.694;2023-02-19T04:14:34;101890.13;;;7.46;97.36
62725;BME280;49026;52.600;4.694;2023-02-19T04:17:04;101891.91;;;7.42;97.89
62725;BME280;49026;52.600;4.694;2023-02-19T04:19:33;101893.63;;;7.41;97.95
62725;BME280;49026;52.600;4.694;2023-02-19T04:22:00;101904.13;;;7.40;97.69
62725;BME280;49026;52.600;4.694;2023-02-19T04:24:34;101899.78;;;7.37;97.57
62725;BME280;49026;52.600;4.694;2023-02-19T04:27:03;101910.25;;;7.37;97.88
62725;BME280;49026;52.600;4.694;2023-02-19T04:29:29;101908.50;;;7.36;98.03
62725;BME280;49026;52.600;4.694;2023-02-19T04:31:56;101912.03;;;7.35;97.65
62725;BME280;49026;52.600;4.694;2023-02-19T04:34:24;101922.47;;;7.35;97.21
62725;BME280;49026;52.600;4.694;2023-02-19T04:36:52;101918.13;;;7.34;97.55
62725;BME280;49026;52.600;4.694;2023-02-19T04:39:20;101925.13;;;7.32;98.04
62725;BME280;49026;52.600;4.694;2023-02-19T04:41:45;101928.59;;;7.33;98.04
62725;BME280;49026;52.600;4.694;2023-02-19T04:44:13;101932.94;;;7.34;97.78
62725;BME280;49026;52.600;4.694;2023-02-19T04:46:41;101920.75;;;7.31;98.03
62725;BME280;49026;52.600;4.694;2023-02-19T04:49:07;101926.88;;;7.30;97.89
62725;BME280;49026;52.600;4.694;2023-02-19T04:51:35;101932.97;;;7.32;98.06
62725;BME280;49026;52.600;4.694;2023-02-19T04:54:00;101945.19;;;7.32;97.91
62725;BME280;49026;52.600;4.694;2023-02-19T04:56:28;101949.53;;;7.31;98.16
62725;BME280;49026;52.600;4.694;2023-02-19T04:58:53;101944.28;;;7.31;98.64
62725;BME280;49026;52.600;4.694;2023-02-19T05:01:21;101934.72;;;7.32;97.71
62725;BME280;49026;52.600;4.694;2023-02-19T05:03:47;101954.75;;;7.30;98.24
62725;BME280;49026;52.600;4.694;2023-02-19T05:06:13;101947.81;;;7.30;98.11
62725;BME280;49026;52.600;4.694;2023-02-19T05:08:40;101950.44;;;7.29;98.43
62725;BME280;49026;52.600;4.694;2023-02-19T05:11:07;101963.50;;;7.27;97.97
62725;BME280;49026;52.600;4.694;2023-02-19T05:13:35;101958.28;;;7.27;98.33
62725;BME280;49026;52.600;4.694;2023-02-19T05:16:03;101964.41;;;7.24;97.95
62725;BME280;49026;52.600;4.694;2023-02-19T05:18:32;101976.59;;;7.24;98.19
62725;BME280;49026;52.600;4.694;2023-02-19T05:21:01;101973.13;;;7.23;98.57
62725;BME280;49026;52.600;4.694;2023-02-19T05:23:26;101960.94;;;7.21;98.55
62725;BME280;49026;52.600;4.694;2023-02-19T05:25:54;101973.16;;;7.22;98.53
62725;BME280;49026;52.600;4.694;2023-02-19T05:28:20;101967.91;;;7.22;98.19
62725;BME280;49026;52.600;4.694;2023-02-19T05:30:55;101971.38;;;7.22;98.58
62725;BME280;49026;52.600;4.694;2023-02-19T05:33:21;101965.31;;;7.20;98.81
62725;BME280;49026;52.600;4.694;2023-02-19T05:35:49;101982.69;;;7.24;98.41
62725;BME280;49026;52.600;4.694;2023-02-19T05:38:16;101978.38;;;7.22;98.64
62725;BME280;49026;52.600;4.694;2023-02-19T05:40:43;101980.09;;;7.23;98.74
62725;BME280;49026;52.600;4.694;2023-02-19T05:43:09;101993.16;;;7.24;98.70
62725;BME280;49026;52.600;4.694;2023-02-19T05:45:37;101987.91;;;7.24;99.04
62725;BME280;49026;52.600;4.694;2023-02-19T05:48:03;102000.13;;;7.26;99.36
62725;BME280;49026;52.600;4.694;2023-02-19T05:50:32;101994.03;;;7.25;99.14
62725;BME280;49026;52.600;4.694;2023-02-19T05:53:00;101996.59;;;7.28;99.63
62725;BME280;49026;52.600;4.694;2023-02-19T05:55:28;101999.22;;;7.30;98.86
62725;BME280;49026;52.600;4.694;2023-02-19T05:57:54;102006.22;;;7.28;98.93
62725;BME280;49026;52.600;4.694;2023-02-19T06:00:20;102019.28;;;7.28;98.95
62725;BME280;49026;52.600;4.694;2023-02-19T06:02:46;102020.16;;;7.27;99.27
62725;BME280;49026;52.600;4.694;2023-02-19T06:05:11;102016.69;;;7.26;99.45
62725;BME280;49026;52.600;4.694;2023-02-19T06:07:37;102023.66;;;7.24;99.14
62725;BME280;49026;52.600;4.694;2023-02-19T06:10:09;102021.06;;;7.22;98.75
62725;BME280;49026;52.600;4.694;2023-02-19T06:12:37;102026.31;;;7.19;99.24
62725;BME280;49026;52.600;4.694;2023-02-19T06:15:08;102023.72;;;7.16;98.89
62725;BME280;49026;52.600;4.694;2023-02-19T06:17:36;102022.00;;;7.14;98.92
62725;BME280;49026;52.600;4.694;2023-02-19T06:20:02;102023.75;;;7.12;99.09
62725;BME280;49026;52.600;4.694;2023-02-19T06:22:27;102023.75;;;7.12;98.64
62725;BME280;49026;52.600;4.694;2023-02-19T06:24:52;102033.34;;;7.11;98.24
62725;BME280;49026;52.600;4.694;2023-02-19T06:27:18;102032.47;;;7.14;98.67
62725;BME280;49026;52.600;4.694;2023-02-19T06:29:43;102042.91;;;7.14;98.79
62725;BME280;49026;52.600;4.694;2023-02-19T06:32:09;102044.63;;;7.15;98.46
62725;BME280;49026;52.600;4.694;2023-02-19T06:34:34;102039.41;;;7.15;98.32
62725;BME280;49026;52.600;4.694;2023-02-19T06:37:02;102042.00;;;7.18;98.91
62725;BME280;49026;52.600;4.694;2023-02-19T06:39:27;102055.97;;;7.18;99.07
62725;BME280;49026;52.600;4.694;2023-02-19T06:41:56;102061.19;;;7.18;98.44
62725;BME280;49026;52.600;4.694;2023-02-19T06:44:22;102065.53;;;7.18;99.09
62725;BME280;49026;52.600;4.694;2023-02-19T06:46:53;102069.88;;;7.20;99.03
62725;BME280;49026;52.600;4.694;2023-02-19T06:49:18;102079.44;;;7.20;99.29
62725;BME280;49026;52.600;4.694;2023-02-19T06:51:44;102072.50;;;7.19;99.12
62725;BME280;49026;52.600;4.694;2023-02-19T06:54:12;102078.59;;;7.19;99.53
62725;BME280;49026;52.600;4.694;2023-02-19T06:56:38;102093.44;;;7.17;99.26
62725;BME280;49026;52.600;4.694;2023-02-19T06:59:12;102090.81;;;7.17;98.57
62725;BME280;49026;52.600;4.694;2023-02-19T07:01:40;102099.53;;;7.15;99.14
62725;BME280;49026;52.600;4.694;2023-02-19T07:04:06;102107.38;;;7.15;99.45
62725;BME280;49026;52.600;4.694;2023-02-19T07:06:33;102116.09;;;7.14;98.87
62725;BME280;49026;52.600;4.694;2023-02-19T07:08:59;102109.13;;;7.13;98.92
62725;BME280;49026;52.600;4.694;2023-02-19T07:11:25;102113.50;;;7.11;99.09
62725;BME280;49026;52.600;4.694;2023-02-19T07:13:57;102122.22;;;7.08;98.80
62725;BME280;49026;52.600;4.694;2023-02-19T07:16:23;102128.34;;;7.05;98.85
62725;BME280;49026;52.600;4.694;2023-02-19T07:18:49;102134.44;;;7.04;99.25
62725;BME280;49026;52.600;4.694;2023-02-19T07:21:15;102135.34;;;7.02;99.25
62725;BME280;49026;52.600;4.694;2023-02-19T07:23:44;102145.78;;;7.00;98.63
62725;BME280;49026;52.600;4.694;2023-02-19T07:26:14;102155.34;;;7.01;98.56
62725;BME280;49026;52.600;4.694;2023-02-19T07:28:43;102146.66;;;6.99;99.06
62725;BME280;49026;52.600;4.694;2023-02-19T07:31:09;102158.00;;;6.98;98.87
62725;BME280;49026;52.600;4.694;2023-02-19T07:33:34;102162.34;;;6.98;98.64
62725;BME280;49026;52.600;4.694;2023-02-19T07:36:00;102164.09;;;6.99;99.38
62725;BME280;49026;52.600;4.694;2023-02-19T07:38:25;102168.47;;;6.97;98.45
62725;BME280;49026;52.600;4.694;2023-02-19T07:40:56;102171.06;;;6.97;98.48
62725;BME280;49026;52.600;4.694;2023-02-19T07:43:22;102176.31;;;6.94;98.06
62725;BME280;49026;52.600;4.694;2023-02-19T07:45:50;102178.94;;;6.89;98.52
62725;BME280;49026;52.600;4.694;2023-02-19T07:48:16;102186.78;;;6.83;97.86
62725;BME280;49026;52.600;4.694;2023-02-19T07:50:50;102185.94;;;6.78;97.94
62725;BME280;49026;52.600;4.694;2023-02-19T07:53:15;102198.13;;;6.76;98.41
62725;BME280;49026;52.600;4.694;2023-02-19T07:55:41;102214.66;;;6.75;98.48
62725;BME280;49026;52.600;4.694;2023-02-19T07:58:06;102219.03;;;6.73;98.35
62725;BME280;49026;52.600;4.694;2023-02-19T08:00:31;102215.56;;;6.71;98.29
62725;BME280;49026;52.600;4.694;2023-02-19T08:02:56;102219.94;;;6.70;98.27
62725;BME280;49026;52.600;4.694;2023-02-19T08:05:26;102208.59;;;6.70;98.47
62725;BME280;49026;52.600;4.694;2023-02-19T08:07:52;102215.56;;;6.74;99.03
62725;BME280;49026;52.600;4.694;2023-02-19T08:10:17;102223.41;;;6.77;98.64
62725;BME280;49026;52.600;4.694;2023-02-19T08:13:02;102239.94;;;6.80;99.03
62725;BME280;49026;52.600;4.694;2023-02-19T08:18:32;102259.94;;;6.81;98.17
62725;BME280;49026;52.600;4.694;2023-02-19T08:20:59;102255.59;;;6.79;97.63
62725;BME280;49026;52.600;4.694;2023-02-19T08:23:27;102258.22;;;6.74;98.63
62725;BME280;49026;52.600;4.694;2023-02-19T08:25:58;102255.59;;;6.73;98.54
62725;BME280;49026;52.600;4.694;2023-02-19T08:28:27;102257.34;;;6.71;98.68
62725;BME280;49026;52.600;4.694;2023-02-19T08:30:57;102245.16;;;6.71;98.78
62725;BME280;49026;52.600;4.694;2023-02-19T08:33:26;102238.19;;;6.75;99.00
62725;BME280;49026;52.600;4.694;2023-02-19T08:35:51;102246.03;;;6.75;98.81
62725;BME280;49026;52.600;4.694;2023-02-19T08:38:17;102250.38;;;6.79;98.54
62725;BME280;49026;52.600;4.694;2023-02-19T08:40:42;102267.78;;;6.80;98.50
62725;BME280;49026;52.600;4.694;2023-02-19T08:43:14;102266.91;;;6.82;98.64
62725;BME280;49026;52.600;4.694;2023-02-19T08:45:44;102266.03;;;6.88;98.87
62725;BME280;49026;52.600;4.694;2023-02-19T08:48:13;102279.97;;;6.87;98.18
62725;BME280;49026;52.600;4.694;2023-02-19T08:50:39;102276.50;;;6.85;98.46
62725;BME280;49026;52.600;4.694;2023-02-19T08:53:06;102288.69;;;6.94;99.13
62725;BME280;49026;52.600;4.694;2023-02-19T08:55:32;102286.94;;;6.97;98.36
62725;BME280;49026;52.600;4.694;2023-02-19T08:57:57;102286.94;;;7.03;98.91
62725;BME280;49026;52.600;4.694;2023-02-19T09:00:25;102299.09;;;7.08;98.58
62725;BME280;49026;52.600;4.694;2023-02-19T09:02:51;102308.66;;;7.15;98.36
62725;BME280;49026;52.600;4.694;2023-02-19T09:05:16;102310.38;;;7.27;98.45
62725;BME280;49026;52.600;4.694;2023-02-19T09:07:42;102319.09;;;7.26;97.89
62725;BME280;49026;52.600;4.694;2023-02-19T09:10:09;102325.22;;;7.17;97.98
62725;BME280;49026;52.600;4.694;2023-02-19T09:12:35;102346.16;;;7.08;98.56
62725;BME280;49026;52.600;4.694;2023-02-19T09:15:05;102347.00;;;7.08;98.88
62725;BME280;49026;52.600;4.694;2023-02-19T09:17:30;102353.97;;;7.21;98.81
62725;BME280;49026;52.600;4.694;2023-02-19T09:19:55;102361.78;;;7.31;99.11
62725;BME280;49026;52.600;4.694;2023-02-19T09:22:21;102360.94;;;7.22;98.61
62725;BME280;49026;52.600;4.694;2023-02-19T09:24:46;102362.69;;;7.10;98.58
62725;BME280;49026;52.600;4.694;2023-02-19T09:27:16;102357.50;;;7.02;98.88
62725;BME280;49026;52.600;4.694;2023-02-19T09:29:42;102361.84;;;6.97;99.22
62725;BME280;49026;52.600;4.694;2023-02-19T09:32:10;102363.59;;;7.10;99.97
62725;BME280;49026;52.600;4.694;2023-02-19T09:34:37;102380.09;;;7.34;100.00
62725;BME280;49026;52.600;4.694;2023-02-19T09:37:04;102394.88;;;7.52;99.52
62725;BME280;49026;52.600;4.694;2023-02-19T09:39:29;102394.91;;;7.49;98.90
62725;BME280;49026;52.600;4.694;2023-02-19T09:42:01;102394.03;;;7.34;99.23
62725;BME280;49026;52.600;4.694;2023-02-19T09:44:35;102394.06;;;7.22;98.99
62725;BME280;49026;52.600;4.694;2023-02-19T09:47:07;102403.66;;;7.04;98.57
62725;BME280;49026;52.600;4.694;2023-02-19T09:49:42;102404.53;;;6.88;99.79
62725;BME280;49026;52.600;4.694;2023-02-19T09:52:23;102420.19;;;6.77;99.70
62725;BME280;49026;52.600;4.694;2023-02-19T09:54:51;102424.56;;;6.71;99.52
62725;BME280;49026;52.600;4.694;2023-02-19T09:57:22;102415.84;;;6.68;100.00
62725;BME280;49026;52.600;4.694;2023-02-19T09:59:55;102418.47;;;6.68;100.00
62725;BME280;49026;52.600;4.694;2023-02-19T10:02:24;102441.97;;;6.65;99.87
62725;BME280;49026;52.600;4.694;2023-02-19T10:04:50;102451.53;;;6.62;100.00
62725;BME280;49026;52.600;4.694;2023-02-19T10:07:25;102461.09;;;6.60;99.88
62725;BME280;49026;52.600;4.694;2023-02-19T10:10:01;102464.59;;;6.62;100.00
62725;BME280;49026;52.600;4.694;2023-02-19T10:12:32;102466.31;;;6.61;99.86
62725;BME280;49026;52.600;4.694;2023-02-19T10:17:35;102467.22;;;6.70;99.83
62725;BME280;49026;52.600;4.694;2023-02-19T10:20:01;102470.69;;;6.73;100.00
62725;BME280;49026;52.600;4.694;2023-02-19T10:22:31;102473.31;;;6.78;100.00
62725;BME280;49026;52.600;4.694;2023-02-19T10:25:02;102475.94;;;6.84;100.00
62725;BME280;49026;52.600;4.694;2023-02-19T10:27:30;102476.84;;;6.89;99.98
62725;BME280;49026;52.600;4.694;2023-02-19T10:29:57;102473.34;;;6.90;99.54
62725;BME280;49026;52.600;4.694;2023-02-19T10:32:26;102469.84;;;6.88;99.52
62725;BME280;49026;52.600;4.694;2023-02-19T10:35:09;102467.22;;;6.86;99.89
62725;BME280;49026;52.600;4.694;2023-02-19T10:37:35;102472.47;;;6.86;100.00
62725;BME280;49026;52.600;4.694;2023-02-19T10:40:13;102473.34;;;6.87;99.32
62725;BME280;49026;52.600;4.694;2023-02-19T10:43:01;102466.38;;;6.88;99.66
62725;BME280;49026;52.600;4.694;2023-02-19T10:45:33;102466.38;;;6.86;99.68
62725;BME280;49026;52.600;4.694;2023-02-19T10:48:03;102471.59;;;6.83;99.45
62725;BME280;49026;52.600;4.694;2023-02-19T10:50:31;102478.56;;;6.82;99.44
62725;BME280;49026;52.600;4.694;2023-02-19T10:52:59;102494.25;;;6.87;99.78
62725;BME280;49026;52.600;4.694;2023-02-19T10:57:55;102500.38;;;6.97;99.51
62725;BME280;49026;52.600;4.694;2023-02-19T11:00:26;102501.25;;;7.00;99.61
62725;BME280;49026;52.600;4.694;2023-02-19T11:05:38;102507.34;;;7.04;99.43
62725;BME280;49026;52.600;4.694;2023-02-19T11:08:20;102525.66;;;7.09;99.64
62725;BME280;49026;52.600;4.694;2023-02-19T11:10:49;102519.56;;;7.05;99.02
62725;BME280;49026;52.600;4.694;2023-02-19T11:13:22;102522.16;;;7.02;99.10
62725;BME280;49026;52.600;4.694;2023-02-19T11:15:54;102523.03;;;7.05;99.23
62725;BME280;49026;52.600;4.694;2023-02-19T11:18:25;102524.78;;;7.11;99.97
62725;BME280;49026;52.600;4.694;2023-02-19T11:20:58;102516.09;;;7.17;99.73
62725;BME280;49026;52.600;4.694;2023-02-19T11:23:28;102518.69;;;7.14;98.83
62725;BME280;49026;52.600;4.694;2023-02-19T11:25:55;102518.69;;;7.11;99.23
62725;BME280;49026;52.600;4.694;2023-02-19T11:28:36;102523.03;;;7.07;98.51
62725;BME280;49026;52.600;4.694;2023-02-19T11:33:52;102516.94;;;7.00;98.93
62725;BME280;49026;52.600;4.694;2023-02-19T11:36:25;102515.19;;;7.07;99.59
62725;BME280;49026;52.600;4.694;2023-02-19T11:38:51;102522.16;;;7.16;99.57
62725;BME280;49026;52.600;4.694;2023-02-19T11:41:37;102509.09;;;7.27;99.78
62725;BME280;49026;52.600;4.694;2023-02-19T11:50:26;102516.88;;;7.90;98.90
62725;BME280;49026;52.600;4.694;2023-02-19T11:53:16;102518.59;;;8.00;99.24
62725;BME280;49026;52.600;4.694;2023-02-19T11:58:58;102528.25;;;7.78;98.70
62725;BME280;49026;52.600;4.694;2023-02-19T12:07:30;102540.47;;;7.53;99.43
62725;BME280;49026;52.600;4.694;2023-02-19T12:10:11;102550.06;;;7.46;98.79
62725;BME280;49026;52.600;4.694;2023-02-19T12:18:28;102555.28;;;7.26;99.67
62725;BME280;49026;52.600;4.694;2023-02-19T12:29:55;102545.72;;;7.44;100.00
62725;BME280;49026;52.600;4.694;2023-02-19T12:40:37;102565.78;;;7.54;100.00
62725;BME280;49026;52.600;4.694;2023-02-19T12:43:23;102573.63;;;7.68;100.00
62725;BME280;49026;52.600;4.694;2023-02-19T12:45:55;102585.84;;;7.83;100.00
62725;BME280;49026;52.600;4.694;2023-02-19T12:50:51;102591.94;;;7.97;99.65
62725;BME280;49026;52.600;4.694;2023-02-19T12:53:31;102591.94;;;7.94;99.31
62725;BME280;49026;52.600;4.694;2023-02-19T12:56:00;102588.44;;;7.89;99.66
62725;BME280;49026;52.600;4.694;2023-02-19T12:58:38;102581.47;;;7.92;99.33
62725;BME280;49026;52.600;4.694;2023-02-19T13:01:06;102583.19;;;7.96;99.27
62725;BME280;49026;52.600;4.694;2023-02-19T13:03:38;102578.84;;;7.98;99.29
62725;BME280;49026;52.600;4.694;2023-02-19T13:06:29;102580.56;;;8.03;99.82
62725;BME280;49026;52.600;4.694;2023-02-19T13:09:05;102588.44;;;8.10;99.56
62725;BME280;49026;52.600;4.694;2023-02-19T13:11:45;102582.28;;;8.07;98.69
62725;BME280;49026;52.600;4.694;2023-02-19T13:14:20;102593.66;;;8.07;98.88
62725;BME280;49026;52.600;4.694;2023-02-19T13:16:56;102604.13;;;8.06;99.09
62725;BME280;49026;52.600;4.694;2023-02-19T13:19:22;102602.38;;;8.02;99.61
62725;BME280;49026;52.600;4.694;2023-02-19T13:22:15;102603.25;;;7.87;98.53
62725;BME280;49026;52.600;4.694;2023-02-19T13:25:13;102614.63;;;7.64;98.80
62725;BME280;49026;52.600;4.694;2023-02-19T13:27:55;102626.84;;;7.62;98.92
62725;BME280;49026;52.600;4.694;2023-02-19T13:33:03;102621.59;;;7.77;99.28
62725;BME280;49026;52.600;4.694;2023-02-19T13:38:20;102625.94;;;7.83;99.35
62725;BME280;49026;52.600;4.694;2023-02-19T13:40:56;102629.47;;;7.85;98.73
62725;BME280;49026;52.600;4.694;2023-02-19T13:43:24;102618.09;;;7.88;99.10
62725;BME280;49026;52.600;4.694;2023-02-19T13:45:55;102614.59;;;7.93;99.26
62725;BME280;49026;52.600;4.694;2023-02-19T13:48:31;102615.47;;;8.06;99.72
62725;BME280;49026;52.600;4.694;2023-02-19T13:59:24;102622.47;;;7.98;98.25
62725;BME280;49026;52.600;4.694;2023-02-19T14:04:44;102611.13;;;7.97;98.69
62725;BME280;49026;52.600;4.694;2023-02-19T14:15:36;102586.66;;;8.06;97.69
62725;BME280;49026;52.600;4.694;2023-02-19T14:30:44;102572.75;;;7.67;96.43
62725;BME280;49026;52.600;4.694;2023-02-19T14:33:12;102576.25;;;7.54;96.46
62725;BME280;49026;52.600;4.694;2023-02-19T14:35:44;102577.13;;;7.45;96.20
62725;BME280;49026;52.600;4.694;2023-02-19T14:38:21;102590.19;;;7.40;96.82
62725;BME280;49026;52.600;4.694;2023-02-19T14:40:49;102583.22;;;7.46;97.18
62725;BME280;49026;52.600;4.694;2023-02-19T14:43:23;102593.69;;;7.49;97.11
62725;BME280;49026;52.600;4.694;2023-02-19T14:45:54;102593.69;;;7.44;96.08
62725;BME280;49026;52.600;4.694;2023-02-19T14:48:28;102588.41;;;7.36;96.51
62725;BME280;49026;52.600;4.694;2023-02-19T14:51:00;102582.34;;;7.42;96.87
62725;BME280;49026;52.600;4.694;2023-02-19T14:53:28;102587.56;;;7.47;96.70
62725;BME280;49026;52.600;4.694;2023-02-19T14:55:55;102599.75;;;7.41;96.16
62725;BME280;49026;52.600;4.694;2023-02-19T14:58:29;102611.94;;;7.33;95.98
62725;BME280;49026;52.600;4.694;2023-02-19T15:00:55;102607.59;;;7.18;95.76
62725;BME280;49026;52.600;4.694;2023-02-19T15:03:35;102615.38;;;7.03;94.84
62725;BME280;49026;52.600;4.694;2023-02-19T15:06:05;102614.50;;;6.98;95.06
62725;BME280;49026;52.600;4.694;2023-02-19T15:08:35;102611.00;;;6.97;95.90
62725;BME280;49026;52.600;4.694;2023-02-19T15:11:01;102611.03;;;7.02;95.92
62725;BME280;49026;52.600;4.694;2023-02-19T15:13:28;102614.50;;;7.01;95.70